sensor_id;sensor_type;location;lat;lon;timestamp;P1;durP1;ratioP1;P2;durP2;ratioP2
73678;SDS011;61978;52.742;16.962;2023-07-29T00:00:32;9.70;;;3.00;;
73678;SDS011;61978;52.742;16.962;2023-07-29T00:02:58;6.70;;;3.10;;
73678;SDS011;61978;52.742;16.962;2023-07-29T00:05:24;124.10;;;6.20;;
73678;SDS011;61978;52.742;16.962;2023-07-29T00:07:50;9.50;;;3.60;;
73678;SDS011;61978;52.742;16.962;2023-07-29T00:10:17;17.10;;;4.10;;
73678;SDS011;61978;52.742;16.962;2023-07-29T00:12:43;73.40;;;5.30;;
73678;SDS011;61978;52.742;16.962;2023-07-29T00:15:09;43.70;;;5.00;;
73678;SDS011;61978;52.742;16.962;2023-07-29T00:17:35;33.00;;;5.60;;
73678;SDS011;61978;52.742;16.962;2023-07-29T00:20:01;13.30;;;4.70;;
73678;SDS011;61978;52.742;16.962;2023-07-29T00:22:28;4.90;;;3.60;;
73678;SDS011;61978;52.742;16.962;2023-07-29T00:24:54;57.00;;;7.00;;
73678;SDS011;61978;52.742;16.962;2023-07-29T00:27:21;37.10;;;5.30;;
73678;SDS011;61978;52.742;16.962;2023-07-29T00:29:47;31.60;;;4.50;;
73678;SDS011;61978;52.742;16.962;2023-07-29T00:32:14;26.10;;;4.20;;
73678;SDS011;61978;52.742;16.962;2023-07-29T00:34:40;17.00;;;4.10;;
73678;SDS011;61978;52.742;16.962;2023-07-29T00:37:06;24.20;;;4.00;;
73678;SDS011;61978;52.742;16.962;2023-07-29T00:39:32;22.00;;;4.00;;
73678;SDS011;61978;52.742;16.962;2023-07-29T00:41:58;15.90;;;4.20;;
73678;SDS011;61978;52.742;16.962;2023-07-29T00:44:24;12.70;;;4.10;;
73678;SDS011;61978;52.742;16.962;2023-07-29T00:46:52;11.30;;;4.20;;
73678;SDS011;61978;52.742;16.962;2023-07-29T00:49:20;9.30;;;3.30;;
73678;SDS011;61978;52.742;16.962;2023-07-29T00:51:48;10.40;;;3.90;;
73678;SDS011;61978;52.742;16.962;2023-07-29T00:54:14;10.60;;;3.90;;
73678;SDS011;61978;52.742;16.962;2023-07-29T00:56:40;13.30;;;3.40;;
73678;SDS011;61978;52.742;16.962;2023-07-29T00:59:07;6.90;;;3.50;;
73678;SDS011;61978;52.742;16.962;2023-07-29T01:01:33;14.60;;;3.10;;
73678;SDS011;61978;52.742;16.962;2023-07-29T01:04:00;21.60;;;4.90;;
73678;SDS011;61978;52.742;16.962;2023-07-29T01:06:45;34.10;;;3.70;;
73678;SDS011;61978;52.742;16.962;2023-07-29T01:11:55;45.80;;;4.40;;
73678;SDS011;61978;52.742;16.962;2023-07-29T01:17:11;27.80;;;4.20;;
73678;SDS011;61978;52.742;16.962;2023-07-29T01:22:05;29.80;;;3.90;;
73678;SDS011;61978;52.742;16.962;2023-07-29T01:24:33;19.80;;;3.10;;
73678;SDS011;61978;52.742;16.962;2023-07-29T01:27:00;25.20;;;3.40;;
73678;SDS011;61978;52.742;16.962;2023-07-29T01:29:30;21.20;;;3.90;;
73678;SDS011;61978;52.742;16.962;2023-07-29T01:31:59;19.60;;;3.60;;
73678;SDS011;61978;52.742;16.962;2023-07-29T01:34:29;19.30;;;3.80;;
73678;SDS011;61978;52.742;16.962;2023-07-29T01:37:00;16.80;;;3.60;;
73678;SDS011;61978;52.742;16.962;2023-07-29T01:39:29;16.50;;;3.40;;
73678;SDS011;61978;52.742;16.962;2023-07-29T01:41:55;23.40;;;4.20;;
73678;SDS011;61978;52.742;16.962;2023-07-29T01:44:22;24.30;;;4.70;;
73678;SDS011;61978;52.742;16.962;2023-07-29T01:46:48;13.30;;;4.40;;
73678;SDS011;61978;52.742;16.962;2023-07-29T01:49:15;16.80;;;4.50;;
73678;SDS011;61978;52.742;16.962;2023-07-29T01:51:41;35.50;;;5.50;;
73678;SDS011;61978;52.742;16.962;2023-07-29T01:54:09;91.70;;;6.70;;
73678;SDS011;61978;52.742;16.962;2023-07-29T01:56:35;311.20;;;13.60;;
73678;SDS011;61978;52.742;16.962;2023-07-29T01:59:02;432.80;;;17.00;;
73678;SDS011;61978;52.742;16.962;2023-07-29T02:01:28;405.30;;;15.30;;
73678;SDS011;61978;52.742;16.962;2023-07-29T02:03:54;367.40;;;12.40;;
73678;SDS011;61978;52.742;16.962;2023-07-29T02:06:21;327.60;;;11.30;;
73678;SDS011;61978;52.742;16.962;2023-07-29T02:08:47;245.10;;;9.90;;
73678;SDS011;61978;52.742;16.962;2023-07-29T02:11:13;295.90;;;9.90;;
73678;SDS011;61978;52.742;16.962;2023-07-29T02:13:39;301.40;;;9.80;;
73678;SDS011;61978;52.742;16.962;2023-07-29T02:16:05;168.70;;;7.00;;
73678;SDS011;61978;52.742;16.962;2023-07-29T02:18:31;312.20;;;11.00;;
73678;SDS011;61978;52.742;16.962;2023-07-29T02:20:57;175.80;;;7.20;;
73678;SDS011;61978;52.742;16.962;2023-07-29T02:23:23;150.40;;;6.50;;
73678;SDS011;61978;52.742;16.962;2023-07-29T02:25:49;206.50;;;7.00;;
73678;SDS011;61978;52.742;16.962;2023-07-29T02:28:15;155.90;;;5.60;;
73678;SDS011;61978;52.742;16.962;2023-07-29T02:30:41;54.80;;;4.20;;
73678;SDS011;61978;52.742;16.962;2023-07-29T02:33:10;73.90;;;4.50;;
73678;SDS011;61978;52.742;16.962;2023-07-29T02:35:37;49.40;;;3.60;;
73678;SDS011;61978;52.742;16.962;2023-07-29T02:38:03;88.30;;;4.90;;
73678;SDS011;61978;52.742;16.962;2023-07-29T02:40:29;112.00;;;5.50;;
73678;SDS011;61978;52.742;16.962;2023-07-29T02:42:56;133.30;;;6.50;;
73678;SDS011;61978;52.742;16.962;2023-07-29T02:45:23;39.10;;;3.80;;
73678;SDS011;61978;52.742;16.962;2023-07-29T02:47:49;88.60;;;6.00;;
73678;SDS011;61978;52.742;16.962;2023-07-29T02:50:15;27.00;;;3.80;;
73678;SDS011;61978;52.742;16.962;2023-07-29T02:52:41;40.10;;;4.90;;
73678;SDS011;61978;52.742;16.962;2023-07-29T02:55:07;75.70;;;5.80;;
73678;SDS011;61978;52.742;16.962;2023-07-29T02:57:33;43.40;;;5.00;;
73678;SDS011;61978;52.742;16.962;2023-07-29T03:00:01;43.00;;;4.40;;
73678;SDS011;61978;52.742;16.962;2023-07-29T03:02:29;47.60;;;3.80;;
73678;SDS011;61978;52.742;16.962;2023-07-29T03:04:54;31.80;;;2.70;;
73678;SDS011;61978;52.742;16.962;2023-07-29T03:07:20;36.70;;;3.10;;
73678;SDS011;61978;52.742;16.962;2023-07-29T03:09:46;39.10;;;3.60;;
73678;SDS011;61978;52.742;16.962;2023-07-29T03:12:12;28.60;;;2.80;;
73678;SDS011;61978;52.742;16.962;2023-07-29T03:14:40;20.30;;;2.40;;
73678;SDS011;61978;52.742;16.962;2023-07-29T03:17:07;16.40;;;2.10;;
73678;SDS011;61978;52.742;16.962;2023-07-29T03:19:32;24.00;;;2.60;;
73678;SDS011;61978;52.742;16.962;2023-07-29T03:21:58;31.70;;;2.40;;
73678;SDS011;61978;52.742;16.962;2023-07-29T03:24:24;25.00;;;2.60;;
73678;SDS011;61978;52.742;16.962;2023-07-29T03:26:50;15.20;;;2.40;;
73678;SDS011;61978;52.742;16.962;2023-07-29T03:29:16;22.90;;;2.60;;
73678;SDS011;61978;52.742;16.962;2023-07-29T03:31:43;20.50;;;3.20;;
73678;SDS011;61978;52.742;16.962;2023-07-29T03:34:10;10.20;;;2.50;;
73678;SDS011;61978;52.742;16.962;2023-07-29T03:36:40;13.60;;;2.50;;
73678;SDS011;61978;52.742;16.962;2023-07-29T03:39:06;28.80;;;2.80;;
73678;SDS011;61978;52.742;16.962;2023-07-29T03:41:33;18.50;;;2.20;;
73678;SDS011;61978;52.742;16.962;2023-07-29T03:43:59;33.30;;;2.80;;
73678;SDS011;61978;52.742;16.962;2023-07-29T03:46:25;52.10;;;3.70;;
73678;SDS011;61978;52.742;16.962;2023-07-29T03:48:50;49.60;;;3.80;;
73678;SDS011;61978;52.742;16.962;2023-07-29T03:51:16;18.00;;;2.70;;
73678;SDS011;61978;52.742;16.962;2023-07-29T03:53:42;51.60;;;3.70;;
73678;SDS011;61978;52.742;16.962;2023-07-29T03:56:08;46.70;;;4.10;;
73678;SDS011;61978;52.742;16.962;2023-07-29T03:58:34;37.00;;;4.00;;
73678;SDS011;61978;52.742;16.962;2023-07-29T04:01:00;55.80;;;4.50;;
73678;SDS011;61978;52.742;16.962;2023-07-29T04:03:26;120.40;;;5.90;;
73678;SDS011;61978;52.742;16.962;2023-07-29T04:05:52;187.40;;;7.00;;
73678;SDS011;61978;52.742;16.962;2023-07-29T04:08:18;99.10;;;4.70;;
73678;SDS011;61978;52.742;16.962;2023-07-29T04:10:44;109.30;;;4.90;;
73678;SDS011;61978;52.742;16.962;2023-07-29T04:13:11;78.50;;;4.10;;
73678;SDS011;61978;52.742;16.962;2023-07-29T04:15:37;59.40;;;3.90;;
73678;SDS011;61978;52.742;16.962;2023-07-29T04:18:03;53.20;;;4.00;;
73678;SDS011;61978;52.742;16.962;2023-07-29T04:20:30;37.80;;;3.30;;
73678;SDS011;61978;52.742;16.962;2023-07-29T04:22:55;27.00;;;2.90;;
73678;SDS011;61978;52.742;16.962;2023-07-29T04:25:21;8.30;;;2.60;;
73678;SDS011;61978;52.742;16.962;2023-07-29T04:27:47;13.50;;;3.10;;
73678;SDS011;61978;52.742;16.962;2023-07-29T04:30:13;29.40;;;3.40;;
73678;SDS011;61978;52.742;16.962;2023-07-29T04:32:39;5.40;;;2.90;;
73678;SDS011;61978;52.742;16.962;2023-07-29T04:35:07;4.80;;;3.30;;
73678;SDS011;61978;52.742;16.962;2023-07-29T04:37:35;5.40;;;3.30;;
73678;SDS011;61978;52.742;16.962;2023-07-29T04:40:01;10.10;;;3.60;;
73678;SDS011;61978;52.742;16.962;2023-07-29T04:42:27;13.30;;;3.90;;
73678;SDS011;61978;52.742;16.962;2023-07-29T04:44:52;16.20;;;4.90;;
73678;SDS011;61978;52.742;16.962;2023-07-29T04:47:18;39.00;;;5.00;;
73678;SDS011;61978;52.742;16.962;2023-07-29T04:49:44;48.40;;;5.20;;
73678;SDS011;61978;52.742;16.962;2023-07-29T04:52:10;77.10;;;5.90;;
73678;SDS011;61978;52.742;16.962;2023-07-29T04:54:36;95.70;;;6.20;;
73678;SDS011;61978;52.742;16.962;2023-07-29T04:57:02;33.50;;;5.30;;
73678;SDS011;61978;52.742;16.962;2023-07-29T04:59:28;35.90;;;5.80;;
73678;SDS011;61978;52.742;16.962;2023-07-29T05:01:54;75.60;;;6.00;;
73678;SDS011;61978;52.742;16.962;2023-07-29T05:04:20;13.80;;;4.90;;
73678;SDS011;61978;52.742;16.962;2023-07-29T05:06:45;33.20;;;4.90;;
73678;SDS011;61978;52.742;16.962;2023-07-29T05:11:41;9.90;;;4.00;;
73678;SDS011;61978;52.742;16.962;2023-07-29T05:14:07;14.50;;;4.40;;
73678;SDS011;61978;52.742;16.962;2023-07-29T05:16:38;6.70;;;4.50;;
73678;SDS011;61978;52.742;16.962;2023-07-29T05:19:05;35.00;;;5.00;;
73678;SDS011;61978;52.742;16.962;2023-07-29T05:21:31;32.60;;;4.90;;
73678;SDS011;61978;52.742;16.962;2023-07-29T05:23:57;23.60;;;4.80;;
73678;SDS011;61978;52.742;16.962;2023-07-29T05:26:23;13.00;;;5.00;;
73678;SDS011;61978;52.742;16.962;2023-07-29T05:28:48;101.80;;;6.30;;
73678;SDS011;61978;52.742;16.962;2023-07-29T05:31:14;80.20;;;6.40;;
73678;SDS011;61978;52.742;16.962;2023-07-29T05:33:40;67.60;;;5.90;;
73678;SDS011;61978;52.742;16.962;2023-07-29T05:36:07;35.20;;;5.50;;
73678;SDS011;61978;52.742;16.962;2023-07-29T05:38:33;52.10;;;5.30;;
73678;SDS011;61978;52.742;16.962;2023-07-29T05:41:00;53.50;;;5.40;;
73678;SDS011;61978;52.742;16.962;2023-07-29T05:43:27;42.30;;;5.10;;
73678;SDS011;61978;52.742;16.962;2023-07-29T05:45:53;46.50;;;5.60;;
73678;SDS011;61978;52.742;16.962;2023-07-29T05:48:20;30.70;;;6.20;;
73678;SDS011;61978;52.742;16.962;2023-07-29T05:50:46;75.10;;;7.10;;
73678;SDS011;61978;52.742;16.962;2023-07-29T05:53:12;27.00;;;6.00;;
73678;SDS011;61978;52.742;16.962;2023-07-29T05:55:37;40.40;;;6.60;;
73678;SDS011;61978;52.742;16.962;2023-07-29T05:58:03;22.80;;;5.90;;
73678;SDS011;61978;52.742;16.962;2023-07-29T06:00:29;11.60;;;6.20;;
73678;SDS011;61978;52.742;16.962;2023-07-29T06:02:55;7.30;;;6.20;;
73678;SDS011;61978;52.742;16.962;2023-07-29T06:05:21;11.50;;;6.00;;
73678;SDS011;61978;52.742;16.962;2023-07-29T06:07:47;12.20;;;5.90;;
73678;SDS011;61978;52.742;16.962;2023-07-29T06:10:15;6.90;;;6.10;;
73678;SDS011;61978;52.742;16.962;2023-07-29T06:12:45;6.10;;;5.50;;
73678;SDS011;61978;52.742;16.962;2023-07-29T06:15:11;8.00;;;5.40;;
73678;SDS011;61978;52.742;16.962;2023-07-29T06:17:38;7.90;;;6.10;;
73678;SDS011;61978;52.742;16.962;2023-07-29T06:20:05;9.00;;;6.00;;
73678;SDS011;61978;52.742;16.962;2023-07-29T06:22:31;6.20;;;5.50;;
73678;SDS011;61978;52.742;16.962;2023-07-29T06:24:57;11.10;;;5.20;;
73678;SDS011;61978;52.742;16.962;2023-07-29T06:27:23;8.40;;;5.80;;
73678;SDS011;61978;52.742;16.962;2023-07-29T06:29:50;6.80;;;4.70;;
73678;SDS011;61978;52.742;16.962;2023-07-29T06:32:16;7.10;;;4.90;;
73678;SDS011;61978;52.742;16.962;2023-07-29T06:34:41;5.00;;;4.60;;
73678;SDS011;61978;52.742;16.962;2023-07-29T06:37:07;7.00;;;4.50;;
73678;SDS011;61978;52.742;16.962;2023-07-29T06:39:33;3.90;;;3.20;;
73678;SDS011;61978;52.742;16.962;2023-07-29T06:41:58;3.40;;;3.10;;
73678;SDS011;61978;52.742;16.962;2023-07-29T06:44:24;3.00;;;2.80;;
73678;SDS011;61978;52.742;16.962;2023-07-29T06:46:49;5.10;;;3.00;;
73678;SDS011;61978;52.742;16.962;2023-07-29T06:49:15;5.50;;;3.00;;
73678;SDS011;61978;52.742;16.962;2023-07-29T06:51:41;4.40;;;3.30;;
73678;SDS011;61978;52.742;16.962;2023-07-29T06:54:06;7.40;;;3.00;;
73678;SDS011;61978;52.742;16.962;2023-07-29T06:56:32;4.40;;;3.00;;
73678;SDS011;61978;52.742;16.962;2023-07-29T06:58:58;2.90;;;2.70;;
73678;SDS011;61978;52.742;16.962;2023-07-29T07:01:23;5.40;;;1.90;;
73678;SDS011;61978;52.742;16.962;2023-07-29T07:03:49;2.30;;;2.10;;
73678;SDS011;61978;52.742;16.962;2023-07-29T07:06:15;6.40;;;3.30;;
73678;SDS011;61978;52.742;16.962;2023-07-29T07:08:40;17.20;;;3.00;;
73678;SDS011;61978;52.742;16.962;2023-07-29T07:11:07;3.50;;;2.40;;
73678;SDS011;61978;52.742;16.962;2023-07-29T07:13:33;2.90;;;2.40;;
73678;SDS011;61978;52.742;16.962;2023-07-29T07:15:59;4.20;;;2.30;;
73678;SDS011;61978;52.742;16.962;2023-07-29T07:18:24;4.70;;;2.70;;
73678;SDS011;61978;52.742;16.962;2023-07-29T07:20:51;3.40;;;2.90;;
73678;SDS011;61978;52.742;16.962;2023-07-29T07:23:18;5.50;;;2.50;;
73678;SDS011;61978;52.742;16.962;2023-07-29T07:25:43;9.60;;;3.10;;
73678;SDS011;61978;52.742;16.962;2023-07-29T07:28:09;8.10;;;3.10;;
73678;SDS011;61978;52.742;16.962;2023-07-29T07:30:35;4.40;;;4.00;;
73678;SDS011;61978;52.742;16.962;2023-07-29T07:33:01;5.20;;;3.20;;
73678;SDS011;61978;52.742;16.962;2023-07-29T07:35:27;5.10;;;4.50;;
73678;SDS011;61978;52.742;16.962;2023-07-29T07:37:53;4.70;;;4.20;;
73678;SDS011;61978;52.742;16.962;2023-07-29T07:40:19;6.30;;;3.80;;
73678;SDS011;61978;52.742;16.962;2023-07-29T07:42:45;6.50;;;4.10;;
73678;SDS011;61978;52.742;16.962;2023-07-29T07:45:11;11.10;;;4.20;;
73678;SDS011;61978;52.742;16.962;2023-07-29T07:47:37;4.80;;;3.30;;
73678;SDS011;61978;52.742;16.962;2023-07-29T07:50:03;7.30;;;3.80;;
73678;SDS011;61978;52.742;16.962;2023-07-29T07:52:29;6.70;;;3.90;;
73678;SDS011;61978;52.742;16.962;2023-07-29T07:54:55;3.80;;;3.40;;
73678;SDS011;61978;52.742;16.962;2023-07-29T07:57:22;4.00;;;1.90;;
73678;SDS011;61978;52.742;16.962;2023-07-29T07:59:48;2.00;;;1.40;;
73678;SDS011;61978;52.742;16.962;2023-07-29T08:02:14;1.40;;;1.30;;
73678;SDS011;61978;52.742;16.962;2023-07-29T08:04:40;1.90;;;1.70;;
73678;SDS011;61978;52.742;16.962;2023-07-29T08:07:06;2.90;;;2.70;;
73678;SDS011;61978;52.742;16.962;2023-07-29T08:09:33;3.40;;;3.10;;
73678;SDS011;61978;52.742;16.962;2023-07-29T08:12:00;3.70;;;3.10;;
73678;SDS011;61978;52.742;16.962;2023-07-29T08:14:26;5.80;;;3.70;;
73678;SDS011;61978;52.742;16.962;2023-07-29T08:16:52;2.90;;;2.60;;
73678;SDS011;61978;52.742;16.962;2023-07-29T08:19:19;3.50;;;2.70;;
73678;SDS011;61978;52.742;16.962;2023-07-29T08:21:44;2.50;;;2.10;;
73678;SDS011;61978;52.742;16.962;2023-07-29T08:24:10;4.70;;;2.20;;
73678;SDS011;61978;52.742;16.962;2023-07-29T08:26:36;3.70;;;2.10;;
73678;SDS011;61978;52.742;16.962;2023-07-29T08:29:02;1.60;;;1.50;;
73678;SDS011;61978;52.742;16.962;2023-07-29T08:31:27;1.80;;;1.60;;
73678;SDS011;61978;52.742;16.962;2023-07-29T08:33:53;6.60;;;2.20;;
73678;SDS011;61978;52.742;16.962;2023-07-29T08:36:19;2.00;;;1.90;;
73678;SDS011;61978;52.742;16.962;2023-07-29T08:38:45;2.80;;;2.50;;
73678;SDS011;61978;52.742;16.962;2023-07-29T08:41:14;2.50;;;2.30;;
73678;SDS011;61978;52.742;16.962;2023-07-29T08:44:30;4.90;;;2.40;;
73678;SDS011;61978;52.742;16.962;2023-07-29T08:46:28;4.70;;;2.60;;
73678;SDS011;61978;52.742;16.962;2023-07-29T08:48:54;4.40;;;3.00;;
73678;SDS011;61978;52.742;16.962;2023-07-29T08:51:21;4.20;;;2.70;;
73678;SDS011;61978;52.742;16.962;2023-07-29T08:53:47;6.30;;;3.10;;
73678;SDS011;61978;52.742;16.962;2023-07-29T08:56:14;3.20;;;2.80;;
73678;SDS011;61978;52.742;16.962;2023-07-29T08:58:41;2.60;;;2.40;;
73678;SDS011;61978;52.742;16.962;2023-07-29T09:01:08;5.50;;;2.50;;
73678;SDS011;61978;52.742;16.962;2023-07-29T09:03:34;4.00;;;1.80;;
73678;SDS011;61978;52.742;16.962;2023-07-29T09:06:00;4.80;;;1.90;;
73678;SDS011;61978;52.742;16.962;2023-07-29T09:08:29;3.90;;;1.90;;
73678;SDS011;61978;52.742;16.962;2023-07-29T09:10:55;2.90;;;1.90;;
73678;SDS011;61978;52.742;16.962;2023-07-29T09:13:21;7.30;;;2.40;;
73678;SDS011;61978;52.742;16.962;2023-07-29T09:15:47;2.10;;;1.70;;
73678;SDS011;61978;52.742;16.962;2023-07-29T09:18:18;3.50;;;1.90;;
73678;SDS011;61978;52.742;16.962;2023-07-29T09:20:45;6.10;;;1.70;;
73678;SDS011;61978;52.742;16.962;2023-07-29T09:23:11;1.10;;;1.00;;
73678;SDS011;61978;52.742;16.962;2023-07-29T09:25:38;2.10;;;1.10;;
73678;SDS011;61978;52.742;16.962;2023-07-29T09:28:12;1.40;;;1.30;;
73678;SDS011;61978;52.742;16.962;2023-07-29T09:30:40;3.10;;;1.10;;
73678;SDS011;61978;52.742;16.962;2023-07-29T09:33:06;3.50;;;1.30;;
73678;SDS011;61978;52.742;16.962;2023-07-29T09:35:34;1.50;;;1.40;;
73678;SDS011;61978;52.742;16.962;2023-07-29T09:38:01;1.00;;;1.00;;
73678;SDS011;61978;52.742;16.962;2023-07-29T09:40:27;3.10;;;1.90;;
73678;SDS011;61978;52.742;16.962;2023-07-29T09:42:54;5.40;;;1.20;;
73678;SDS011;61978;52.742;16.962;2023-07-29T09:45:23;3.90;;;1.30;;
73678;SDS011;61978;52.742;16.962;2023-07-29T09:47:50;2.60;;;1.20;;
73678;SDS011;61978;52.742;16.962;2023-07-29T09:50:16;1.60;;;1.20;;
73678;SDS011;61978;52.742;16.962;2023-07-29T09:52:42;4.20;;;1.00;;
73678;SDS011;61978;52.742;16.962;2023-07-29T09:55:12;1.90;;;1.50;;
73678;SDS011;61978;52.742;16.962;2023-07-29T09:57:39;1.20;;;1.10;;
73678;SDS011;61978;52.742;16.962;2023-07-29T10:00:06;3.10;;;1.10;;
73678;SDS011;61978;52.742;16.962;2023-07-29T10:02:40;0.90;;;0.70;;
73678;SDS011;61978;52.742;16.962;2023-07-29T10:05:07;3.50;;;0.80;;
73678;SDS011;61978;52.742;16.962;2023-07-29T10:07:37;1.80;;;1.50;;
73678;SDS011;61978;52.742;16.962;2023-07-29T10:10:04;2.50;;;0.70;;
73678;SDS011;61978;52.742;16.962;2023-07-29T10:12:30;3.40;;;1.00;;
73678;SDS011;61978;52.742;16.962;2023-07-29T10:14:57;6.00;;;1.30;;
73678;SDS011;61978;52.742;16.962;2023-07-29T10:17:24;1.20;;;1.00;;
73678;SDS011;61978;52.742;16.962;2023-07-29T10:19:51;0.90;;;0.90;;
73678;SDS011;61978;52.742;16.962;2023-07-29T10:22:19;1.10;;;1.00;;
73678;SDS011;61978;52.742;16.962;2023-07-29T10:24:45;2.50;;;1.50;;
73678;SDS011;61978;52.742;16.962;2023-07-29T10:27:13;1.10;;;0.90;;
73678;SDS011;61978;52.742;16.962;2023-07-29T10:29:42;4.10;;;1.30;;
73678;SDS011;61978;52.742;16.962;2023-07-29T10:32:08;2.40;;;1.20;;
73678;SDS011;61978;52.742;16.962;2023-07-29T10:34:35;1.50;;;1.40;;
73678;SDS011;61978;52.742;16.962;2023-07-29T10:37:01;1.20;;;1.10;;
73678;SDS011;61978;52.742;16.962;2023-07-29T10:39:27;1.50;;;1.40;;
73678;SDS011;61978;52.742;16.962;2023-07-29T10:42:05;6.80;;;1.70;;
73678;SDS011;61978;52.742;16.962;2023-07-29T10:47:12;3.80;;;1.80;;
73678;SDS011;61978;52.742;16.962;2023-07-29T10:49:41;2.30;;;2.10;;
73678;SDS011;61978;52.742;16.962;2023-07-29T10:52:07;1.60;;;1.50;;
73678;SDS011;61978;52.742;16.962;2023-07-29T10:54:45;2.00;;;1.60;;
73678;SDS011;61978;52.742;16.962;2023-07-29T10:57:15;2.40;;;1.70;;
73678;SDS011;61978;52.742;16.962;2023-07-29T10:59:54;2.80;;;2.10;;
73678;SDS011;61978;52.742;16.962;2023-07-29T11:02:31;4.10;;;2.10;;
73678;SDS011;61978;52.742;16.962;2023-07-29T11:04:58;6.50;;;2.20;;
73678;SDS011;61978;52.742;16.962;2023-07-29T11:07:26;2.00;;;1.90;;
73678;SDS011;61978;52.742;16.962;2023-07-29T11:09:59;2.60;;;2.10;;
73678;SDS011;61978;52.742;16.962;2023-07-29T11:15:01;3.90;;;1.80;;
73678;SDS011;61978;52.742;16.962;2023-07-29T11:17:29;3.10;;;2.30;;
73678;SDS011;61978;52.742;16.962;2023-07-29T11:19:57;3.50;;;2.40;;
73678;SDS011;61978;52.742;16.962;2023-07-29T11:22:26;2.60;;;2.40;;
73678;SDS011;61978;52.742;16.962;2023-07-29T11:24:52;2.70;;;2.30;;
73678;SDS011;61978;52.742;16.962;2023-07-29T11:27:18;3.50;;;1.90;;
73678;SDS011;61978;52.742;16.962;2023-07-29T11:29:44;3.50;;;1.80;;
73678;SDS011;61978;52.742;16.962;2023-07-29T11:32:10;1.90;;;1.80;;
73678;SDS011;61978;52.742;16.962;2023-07-29T11:34:36;3.90;;;1.90;;
73678;SDS011;61978;52.742;16.962;2023-07-29T11:37:02;2.80;;;1.90;;
73678;SDS011;61978;52.742;16.962;2023-07-29T11:39:28;2.20;;;2.00;;
73678;SDS011;61978;52.742;16.962;2023-07-29T11:41:54;2.10;;;1.70;;
73678;SDS011;61978;52.742;16.962;2023-07-29T11:44:20;2.40;;;1.80;;
73678;SDS011;61978;52.742;16.962;2023-07-29T11:46:46;2.20;;;1.80;;
73678;SDS011;61978;52.742;16.962;2023-07-29T11:49:13;2.20;;;2.00;;
73678;SDS011;61978;52.742;16.962;2023-07-29T11:51:39;2.00;;;1.90;;
73678;SDS011;61978;52.742;16.962;2023-07-29T11:54:06;2.00;;;1.80;;
73678;SDS011;61978;52.742;16.962;2023-07-29T11:56:32;3.20;;;1.70;;
73678;SDS011;61978;52.742;16.962;2023-07-29T11:58:58;4.90;;;1.70;;
73678;SDS011;61978;52.742;16.962;2023-07-29T12:01:23;6.90;;;2.00;;
73678;SDS011;61978;52.742;16.962;2023-07-29T12:03:50;6.80;;;1.80;;
73678;SDS011;61978;52.742;16.962;2023-07-29T12:06:16;4.70;;;1.60;;
73678;SDS011;61978;52.742;16.962;2023-07-29T12:08:43;2.70;;;1.80;;
73678;SDS011;61978;52.742;16.962;2023-07-29T12:11:09;11.20;;;2.40;;
73678;SDS011;61978;52.742;16.962;2023-07-29T12:13:36;2.60;;;1.70;;
73678;SDS011;61978;52.742;16.962;2023-07-29T12:16:02;2.90;;;1.90;;
73678;SDS011;61978;52.742;16.962;2023-07-29T12:18:29;3.60;;;1.70;;
73678;SDS011;61978;52.742;16.962;2023-07-29T12:20:56;2.30;;;1.80;;
73678;SDS011;61978;52.742;16.962;2023-07-29T12:23:26;4.50;;;1.90;;
73678;SDS011;61978;52.742;16.962;2023-07-29T12:25:56;4.50;;;1.90;;
73678;SDS011;61978;52.742;16.962;2023-07-29T12:28:22;3.00;;;2.00;;
73678;SDS011;61978;52.742;16.962;2023-07-29T12:30:52;3.70;;;1.60;;
73678;SDS011;61978;52.742;16.962;2023-07-29T12:33:31;2.40;;;1.90;;
73678;SDS011;61978;52.742;16.962;2023-07-29T12:35:57;5.10;;;1.80;;
73678;SDS011;61978;52.742;16.962;2023-07-29T12:38:25;3.50;;;1.80;;
73678;SDS011;61978;52.742;16.962;2023-07-29T12:40:51;4.70;;;1.80;;
73678;SDS011;61978;52.742;16.962;2023-07-29T12:43:17;2.00;;;1.90;;
73678;SDS011;61978;52.742;16.962;2023-07-29T12:45:43;2.40;;;2.20;;
73678;SDS011;61978;52.742;16.962;2023-07-29T12:48:09;2.70;;;2.00;;
73678;SDS011;61978;52.742;16.962;2023-07-29T12:50:35;3.40;;;2.30;;
73678;SDS011;61978;52.742;16.962;2023-07-29T12:53:01;1.80;;;1.60;;
73678;SDS011;61978;52.742;16.962;2023-07-29T12:55:27;1.70;;;1.40;;
73678;SDS011;61978;52.742;16.962;2023-07-29T12:57:52;3.90;;;1.80;;
73678;SDS011;61978;52.742;16.962;2023-07-29T13:00:18;4.30;;;1.60;;
73678;SDS011;61978;52.742;16.962;2023-07-29T13:02:44;2.90;;;2.00;;
73678;SDS011;61978;52.742;16.962;2023-07-29T13:05:10;2.10;;;1.60;;
73678;SDS011;61978;52.742;16.962;2023-07-29T13:07:40;3.00;;;1.60;;
73678;SDS011;61978;52.742;16.962;2023-07-29T13:10:06;2.20;;;1.40;;
73678;SDS011;61978;52.742;16.962;2023-07-29T13:12:32;4.00;;;1.70;;
73678;SDS011;61978;52.742;16.962;2023-07-29T13:14:58;2.00;;;1.70;;
73678;SDS011;61978;52.742;16.962;2023-07-29T13:17:24;6.30;;;1.70;;
73678;SDS011;61978;52.742;16.962;2023-07-29T13:19:50;5.90;;;1.40;;
73678;SDS011;61978;52.742;16.962;2023-07-29T13:22:16;1.50;;;1.30;;
73678;SDS011;61978;52.742;16.962;2023-07-29T13:24:42;6.20;;;1.70;;
73678;SDS011;61978;52.742;16.962;2023-07-29T13:27:07;2.80;;;1.40;;
73678;SDS011;61978;52.742;16.962;2023-07-29T13:29:33;3.00;;;1.70;;
73678;SDS011;61978;52.742;16.962;2023-07-29T13:31:59;3.80;;;1.80;;
73678;SDS011;61978;52.742;16.962;2023-07-29T13:34:25;3.70;;;1.60;;
73678;SDS011;61978;52.742;16.962;2023-07-29T13:36:51;1.70;;;1.60;;
73678;SDS011;61978;52.742;16.962;2023-07-29T13:39:18;2.30;;;1.40;;
73678;SDS011;61978;52.742;16.962;2023-07-29T13:41:43;1.70;;;1.50;;
73678;SDS011;61978;52.742;16.962;2023-07-29T13:44:10;1.40;;;1.30;;
73678;SDS011;61978;52.742;16.962;2023-07-29T13:46:35;3.40;;;1.50;;
73678;SDS011;61978;52.742;16.962;2023-07-29T13:49:01;1.40;;;1.30;;
73678;SDS011;61978;52.742;16.962;2023-07-29T13:51:27;2.60;;;1.30;;
73678;SDS011;61978;52.742;16.962;2023-07-29T13:53:53;1.50;;;1.30;;
73678;SDS011;61978;52.742;16.962;2023-07-29T13:56:18;1.60;;;1.00;;
73678;SDS011;61978;52.742;16.962;2023-07-29T13:58:44;5.70;;;1.50;;
73678;SDS011;61978;52.742;16.962;2023-07-29T14:01:09;1.30;;;1.10;;
73678;SDS011;61978;52.742;16.962;2023-07-29T14:03:35;2.50;;;1.20;;
73678;SDS011;61978;52.742;16.962;2023-07-29T14:06:01;4.40;;;1.60;;
73678;SDS011;61978;52.742;16.962;2023-07-29T14:08:27;2.10;;;1.20;;
73678;SDS011;61978;52.742;16.962;2023-07-29T14:10:52;1.50;;;1.30;;
73678;SDS011;61978;52.742;16.962;2023-07-29T14:13:18;1.80;;;1.30;;
73678;SDS011;61978;52.742;16.962;2023-07-29T14:15:44;1.90;;;1.30;;
73678;SDS011;61978;52.742;16.962;2023-07-29T14:18:10;1.50;;;1.40;;
73678;SDS011;61978;52.742;16.962;2023-07-29T14:20:36;2.00;;;1.10;;
73678;SDS011;61978;52.742;16.962;2023-07-29T14:23:02;3.50;;;1.40;;
73678;SDS011;61978;52.742;16.962;2023-07-29T14:25:27;2.50;;;1.40;;
73678;SDS011;61978;52.742;16.962;2023-07-29T14:27:54;4.10;;;1.10;;
73678;SDS011;61978;52.742;16.962;2023-07-29T14:30:21;3.70;;;1.50;;
73678;SDS011;61978;52.742;16.962;2023-07-29T14:32:50;1.70;;;1.10;;
73678;SDS011;61978;52.742;16.962;2023-07-29T14:35:17;2.00;;;1.30;;
73678;SDS011;61978;52.742;16.962;2023-07-29T14:37:43;12.50;;;1.70;;
73678;SDS011;61978;52.742;16.962;2023-07-29T14:40:09;4.70;;;0.70;;